Time;durP1;ratioP1;P1;durP2;ratioP2;P2;SDS_P1;SDS_P2;PMS_P1;PMS_P2;Temp;Humidity;BMP_temperature;BMP_pressure;BME280_temperature;BME280_humidity;BME280_pressure;Samples;Min_cycle;Max_cycle;Signal;HPM_P1;HPM_P2
2022/09/04 00:00:56;;;;;;;1.43;1.03;;;;;;;15.91;67.19;101886.97;5005160;28;20343;-74
2022/09/04 00:03:37;;;;;;;3.70;1.10;;;;;;;15.91;66.99;101893.00;4991532;28;20191;-74
2022/09/04 00:06:10;;;;;;;5.80;1.13;;;;;;;15.91;66.96;101890.44;5006304;28;20282;-74
2022/09/04 00:09:01;;;;;;;1.77;1.30;;;;;;;15.88;66.84;101889.53;5006909;28;20302;-74
2022/09/04 00:11:43;;;;;;;2.97;1.30;;;;;;;15.85;67.21;101890.34;5014565;28;20195;-74
2022/09/04 00:14:28;;;;;;;1.87;1.07;;;;;;;15.82;66.51;101894.59;5004709;28;20265;-75
2022/09/04 00:17:00;;;;;;;3.10;1.07;;;;;;;15.80;67.04;101897.13;5005341;28;20724;-75
2022/09/04 00:19:58;;;;;;;5.27;1.10;;;;;;;15.81;66.68;101898.00;4990113;28;20188;-74
2022/09/04 00:22:41;;;;;;;5.27;1.20;;;;;;;15.82;66.50;101903.22;5007477;28;20191;-74
2022/09/04 00:25:20;;;;;;;2.80;1.10;;;;;;;15.79;66.77;101900.56;5002553;28;20191;-74
2022/09/04 00:27:52;;;;;;;2.13;1.00;;;;;;;15.77;67.16;101901.41;4992327;28;20219;-74
2022/09/04 00:30:20;;;;;;;1.17;0.97;;;;;;;15.74;66.81;101903.94;5005567;28;20202;-75
2022/09/04 00:32:58;;;;;;;3.37;1.30;;;;;;;15.74;67.03;101906.53;5009850;28;20279;-74
2022/09/04 00:35:40;;;;;;;2.67;1.30;;;;;;;15.68;67.62;101902.13;4986842;28;20678;-74
2022/09/04 00:38:18;;;;;;;1.93;0.80;;;;;;;15.70;66.95;101908.19;5008588;28;20269;-74
2022/09/04 00:40:56;;;;;;;2.40;0.83;;;;;;;15.67;67.18;101908.16;4990274;28;20207;-74
2022/09/04 00:43:21;;;;;;;2.13;1.03;;;;;;;15.64;67.20;101909.78;5004332;28;20245;-74
2022/09/04 00:45:59;;;;;;;3.50;1.10;;;;;;;15.64;67.53;101907.22;4992812;28;20188;-75
2022/09/04 00:48:36;;;;;;;5.83;1.10;;;;;;;15.62;67.64;101911.50;4991100;28;20701;-74
2022/09/04 00:51:10;;;;;;;1.57;1.20;;;;;;;15.69;66.97;101919.34;5008482;28;20215;-74
2022/09/04 00:54:03;;;;;;;2.20;1.00;;;;;;;15.69;66.66;101914.19;5004880;28;20183;-74
2022/09/04 00:57:10;;;;;;;1.43;0.90;;;;;;;15.67;66.26;101913.31;5004917;28;20199;-74
2022/09/04 00:59:55;;;;;;;1.67;0.93;;;;;;;15.62;66.51;101921.81;4965788;28;20202;-75
2022/09/04 01:02:41;;;;;;;1.80;0.90;;;;;;;15.64;66.44;101915.84;5011571;28;20192;-74
2022/09/04 01:05:30;;;;;;;2.27;0.93;;;;;;;15.68;66.36;101917.63;5007950;28;20192;-75
2022/09/04 01:08:04;;;;;;;3.67;1.30;;;;;;;15.63;66.83;101914.09;5009260;28;20253;-74
2022/09/04 01:10:51;;;;;;;1.30;0.93;;;;;;;15.62;66.59;101917.53;5006348;28;20195;-72
2022/09/04 01:13:40;;;;;;;1.70;0.83;;;;;;;15.61;66.48;101915.78;5004743;28;20219;-74
2022/09/04 01:16:23;;;;;;;1.83;1.07;;;;;;;15.60;66.76;101918.31;4993340;28;20191;-74
2022/09/04 01:19:11;;;;;;;2.37;1.20;;;;;;;15.54;66.82;101915.66;5016037;28;20215;-74
2022/09/04 01:21:55;;;;;;;3.27;1.30;;;;;;;15.48;67.60;101920.72;5020413;23;20223;-73
2022/09/04 01:24:32;;;;;;;5.13;1.33;;;;;;;15.48;67.37;101926.75;4991929;28;20670;-72
2022/09/04 01:27:07;;;;;;;3.43;1.10;;;;;;;15.46;67.37;101924.97;4993263;28;20214;-72
2022/09/04 01:29:51;;;;;;;3.50;1.10;;;;;;;15.47;67.53;101927.59;5008264;28;20246;-71
2022/09/04 01:32:39;;;;;;;2.73;1.10;;;;;;;15.48;67.69;101928.47;4970163;28;20255;-71
2022/09/04 01:35:20;;;;;;;1.23;1.00;;;;;;;15.43;68.06;101924.94;4972566;28;20208;-72
2022/09/04 01:37:46;;;;;;;2.67;1.10;;;;;;;15.42;68.34;101923.22;4971437;28;20200;-73
2022/09/04 01:40:28;;;;;;;2.83;1.03;;;;;;;15.43;67.68;101923.22;4972322;28;20212;-72
2022/09/04 01:43:06;;;;;;;3.37;1.20;;;;;;;15.39;68.09;101926.63;4970671;28;20195;-73
2022/09/04 01:45:51;;;;;;;2.80;0.97;;;;;;;15.38;67.39;101917.09;4972141;28;20200;-72
2022/09/04 01:48:26;;;;;;;2.00;0.90;;;;;;;15.37;68.11;101917.09;4985446;28;20197;-72
2022/09/04 01:50:57;;;;;;;1.17;0.93;;;;;;;15.35;67.78;101924.81;4971024;28;20300;-71
2022/09/04 01:53:29;;;;;;;1.07;0.97;;;;;;;15.34;67.62;101923.06;4969924;28;20201;-71
2022/09/04 01:56:15;;;;;;;1.57;1.07;;;;;;;15.31;67.51;101919.53;4972050;28;20192;-71
2022/09/04 01:58:55;;;;;;;0.90;0.80;;;;;;;15.35;66.67;101916.19;4971488;28;20303;-73
2022/09/04 02:01:38;;;;;;;2.77;1.00;;;;;;;15.36;67.05;101916.22;4971840;28;20212;-74
2022/09/04 02:04:21;;;;;;;2.13;0.90;;;;;;;15.35;66.46;101926.53;4971848;28;20189;-73
2022/09/04 02:06:57;;;;;;;1.30;0.90;;;;;;;15.33;66.78;101921.28;4969441;28;20232;-73
2022/09/04 02:09:33;;;;;;;3.23;1.17;;;;;;;15.35;66.16;101931.69;4971944;28;20293;-75
2022/09/04 02:12:10;;;;;;;2.23;1.30;;;;;;;15.30;66.37;101926.41;4971675;28;20215;-75
2022/09/04 02:14:42;;;;;;;5.23;1.10;;;;;;;15.29;65.87;101919.50;4971320;28;20299;-73
2022/09/04 02:17:34;;;;;;;4.77;1.37;;;;;;;15.28;66.33;101922.06;4971565;28;20204;-73
2022/09/04 02:20:25;;;;;;;2.50;1.23;;;;;;;15.22;66.01;101928.00;4973531;28;20209;-72
2022/09/04 02:23:25;;;;;;;1.97;1.07;;;;;;;15.22;65.82;101919.38;4983558;28;20663;-74
2022/09/04 02:26:02;;;;;;;2.70;1.00;;;;;;;15.24;65.75;101917.69;4988930;28;20254;-73
2022/09/04 02:28:53;;;;;;;1.93;1.10;;;;;;;15.19;65.69;101915.03;4988685;28;20625;-74
2022/09/04 02:31:48;;;;;;;1.73;1.20;;;;;;;15.16;66.45;101925.31;4988680;28;20216;-74
2022/09/04 02:34:22;;;;;;;3.53;1.07;;;;;;;15.16;65.70;101924.44;4989470;28;20207;-77
2022/09/04 02:37:13;;;;;;;2.23;0.90;;;;;;;15.17;65.84;101926.16;4989032;28;20230;-75
2022/09/04 02:40:10;;;;;;;1.80;1.10;;;;;;;15.13;66.06;101926.94;4989395;28;20658;-74
2022/09/04 02:43:26;;;;;;;1.93;1.00;;;;;;;15.06;66.03;101933.69;4988906;28;20191;-74
2022/09/04 02:46:06;;;;;;;2.80;1.20;;;;;;;15.03;66.09;101938.81;4954585;28;20204;-74
2022/09/04 02:49:04;;;;;;;2.03;1.30;;;;;;;15.02;65.82;101936.19;4990267;28;20484;-73
2022/09/04 02:51:54;;;;;;;3.13;1.00;;;;;;;15.01;66.40;101935.31;4985663;28;20216;-75
2022/09/04 02:54:41;;;;;;;2.37;1.10;;;;;;;15.00;65.94;101936.16;4987629;28;20207;-75
2022/09/04 02:57:32;;;;;;;2.20;1.17;;;;;;;14.99;66.07;101944.75;4986652;28;20207;-74
2022/09/04 03:00:04;;;;;;;1.47;0.97;;;;;;;14.97;65.90;101943.00;4990453;28;20187;-73
2022/09/04 03:03:02;;;;;;;3.83;1.10;;;;;;;14.90;66.40;101938.53;4990587;28;20203;-73
2022/09/04 03:05:38;;;;;;;4.00;1.17;;;;;;;14.83;66.31;101947.84;4987569;28;20526;-73
2022/09/04 03:08:23;;;;;;;1.37;0.97;;;;;;;14.83;66.24;101942.69;4990437;28;20203;-72
2022/09/04 03:10:57;;;;;;;4.17;1.37;;;;;;;14.80;67.15;101946.94;4988989;28;20207;-72
2022/09/04 03:13:37;;;;;;;2.10;1.20;;;;;;;14.73;66.85;101952.81;4989431;28;20246;-73
2022/09/04 03:16:14;;;;;;;1.20;1.10;;;;;;;14.69;67.38;101957.03;4966678;28;20203;-74
2022/09/04 03:19:05;;;;;;;2.13;1.13;;;;;;;14.66;66.91;101956.09;4988371;28;20196;-73
2022/09/04 03:21:54;;;;;;;2.17;1.33;;;;;;;14.61;67.54;101955.13;4989014;28;20242;-74
2022/09/04 03:24:24;;;;;;;3.47;1.30;;;;;;;14.55;67.94;101955.88;4990033;28;20685;-74
2022/09/04 03:26:53;;;;;;;2.67;1.20;;;;;;;14.51;67.65;101959.22;4993146;28;20194;-73
2022/09/04 03:29:43;;;;;;;2.77;0.97;;;;;;;14.50;68.37;101960.06;4990205;28;20188;-74
2022/09/04 03:32:15;;;;;;;2.50;1.10;;;;;;;14.46;68.03;101962.56;4991466;28;20269;-72
2022/09/04 03:34:51;;;;;;;1.53;1.10;;;;;;;14.39;68.38;101966.69;4989454;28;20744;-74
2022/09/04 03:37:16;;;;;;;2.43;1.30;;;;;;;14.32;68.97;101972.53;4989663;28;20195;-72
2022/09/04 03:39:48;;;;;;;2.77;1.20;;;;;;;14.31;68.33;101969.97;4990123;28;20672;-73
2022/09/04 03:42:37;;;;;;;1.90;1.33;;;;;;;14.26;69.33;101971.53;4990366;28;20588;-73
2022/09/04 03:45:13;;;;;;;3.27;1.47;;;;;;;14.22;69.26;101980.91;4989776;28;20180;-72
2022/09/04 03:48:04;;;;;;;2.03;1.20;;;;;;;14.15;69.57;101978.13;4990306;28;20183;-72
2022/09/04 03:50:51;;;;;;;1.67;1.10;;;;;;;14.11;69.36;101984.03;4989792;28;20211;-75
2022/09/04 03:53:44;;;;;;;1.43;1.20;;;;;;;14.00;69.46;101982.94;4986702;28;20195;-73
2022/09/04 03:56:15;;;;;;;2.57;1.10;;;;;;;13.94;70.04;101993.94;4985068;28;20179;-73
2022/09/04 03:58:51;;;;;;;1.97;1.13;;;;;;;13.90;69.84;101993.84;4986994;28;20275;-73
2022/09/04 04:01:44;;;;;;;1.73;1.30;;;;;;;13.77;70.35;101996.94;4991336;28;20221;-73
2022/09/04 04:04:42;;;;;;;1.87;1.30;;;;;;;13.69;71.99;101993.31;4991385;28;20184;-72
2022/09/04 04:07:30;;;;;;;2.63;1.00;;;;;;;13.63;71.55;102000.88;4994294;28;20223;-71
2022/09/04 04:10:23;;;;;;;1.33;1.23;;;;;;;13.58;72.41;102007.63;4993174;28;20532;-73
2022/09/04 04:13:16;;;;;;;4.00;1.00;;;;;;;13.46;72.58;102010.75;4991801;28;20226;-72
2022/09/04 04:15:55;;;;;;;2.17;1.33;;;;;;;13.45;72.76;102015.84;4993503;28;20211;-71
2022/09/04 04:19:02;;;;;;;1.63;1.37;;;;;;;13.38;72.90;102017.38;4992056;28;20252;-73
2022/09/04 04:21:55;;;;;;;2.07;1.30;;;;;;;13.31;73.75;102018.03;4967054;28;20232;-72
2022/09/04 04:24:31;;;;;;;3.20;1.53;;;;;;;13.21;74.25;102030.63;4974186;28;20185;-73
2022/09/04 04:27:40;;;;;;;2.27;1.37;;;;;;;13.18;74.16;102028.84;4974261;28;20280;-72
2022/09/04 04:30:08;;;;;;;2.97;1.57;;;;;;;13.11;75.25;102032.03;4956491;28;20289;-72
2022/09/04 04:32:44;;;;;;;1.80;1.10;;;;;;;13.11;74.88;102032.03;4972863;28;20730;-72
2022/09/04 04:35:24;;;;;;;1.90;1.33;;;;;;;13.05;74.69;102031.00;4988934;28;20258;-71
2022/09/04 04:37:54;;;;;;;2.53;1.43;;;;;;;12.96;75.36;102029.00;4973839;28;20196;-72
2022/09/04 04:40:47;;;;;;;2.07;1.00;;;;;;;12.93;75.96;102037.50;4973612;28;20590;-74
2022/09/04 04:43:31;;;;;;;1.87;1.20;;;;;;;12.91;75.87;102041.72;4984637;28;20262;-72
2022/09/04 04:46:16;;;;;;;1.30;1.10;;;;;;;12.98;75.13;102042.81;4973228;28;20192;-71
2022/09/04 04:49:26;;;;;;;1.77;1.30;;;;;;;12.93;76.10;102053.78;4970387;28;20681;-71
2022/09/04 04:52:18;;;;;;;3.20;1.40;;;;;;;12.90;76.04;102052.00;4986714;28;20208;-72
2022/09/04 04:55:04;;;;;;;2.40;1.40;;;;;;;12.85;76.12;102059.53;4971333;28;20235;-72
2022/09/04 04:57:48;;;;;;;1.77;1.30;;;;;;;12.88;76.22;102063.91;4986754;28;20655;-72
2022/09/04 05:00:19;;;;;;;3.03;1.50;;;;;;;12.91;76.51;102066.59;4972381;28;20208;-74
2022/09/04 05:03:18;;;;;;;2.50;1.60;;;;;;;12.95;76.28;102058.97;4970616;28;20202;-74
2022/09/04 05:05:56;;;;;;;2.00;1.50;;;;;;;13.02;75.56;102067.78;4972225;28;20365;-72
2022/09/04 05:08:46;;;;;;;1.70;1.20;;;;;;;13.10;75.08;102062.84;4972867;28;20721;-72
2022/09/04 05:11:50;;;;;;;1.97;1.10;;;;;;;13.25;74.35;102065.88;5004321;28;20266;-71
2022/09/04 05:14:28;;;;;;;2.67;1.20;;;;;;;13.36;74.29;102064.47;4970632;28;20251;-73
2022/09/04 05:17:05;;;;;;;1.97;1.30;;;;;;;13.41;73.72;102062.91;4988380;28;20545;-73
2022/09/04 05:20:09;;;;;;;4.23;1.63;;;;;;;13.51;73.18;102070.91;4973315;28;20211;-74
2022/09/04 05:22:45;;;;;;;1.70;1.50;;;;;;;13.62;72.59;102060.91;4959537;28;20204;-71
2022/09/04 05:25:23;;;;;;;2.37;1.37;;;;;;;13.72;72.48;102070.63;4967789;28;20307;-73
2022/09/04 05:27:56;;;;;;;2.07;1.30;;;;;;;13.80;72.17;102069.09;4966462;28;20207;-72
2022/09/04 05:30:46;;;;;;;1.97;1.03;;;;;;;13.89;72.07;102071.91;4972837;28;20208;-72
2022/09/04 05:33:33;;;;;;;2.17;1.47;;;;;;;14.03;71.17;102078.28;4971633;28;20199;-73
2022/09/04 05:36:11;;;;;;;5.63;1.47;;;;;;;14.19;71.03;102086.47;4973544;28;20195;-72
2022/09/04 05:38:56;;;;;;;2.60;1.40;;;;;;;14.37;69.84;102088.63;4972809;28;20192;-73
2022/09/04 05:41:47;;;;;;;2.67;1.13;;;;;;;14.49;69.87;102087.22;4970599;28;20247;-72
2022/09/04 05:44:21;;;;;;;4.53;1.20;;;;;;;14.65;68.99;102097.03;4968810;28;20216;-73
2022/09/04 05:47:08;;;;;;;1.37;1.10;;;;;;;14.79;68.87;102089.63;4972598;28;20188;-72
2022/09/04 05:49:45;;;;;;;2.07;1.60;;;;;;;14.94;67.68;102089.94;4973767;28;20212;-71
2022/09/04 05:52:42;;;;;;;4.13;1.57;;;;;;;15.11;67.28;102096.34;4972413;28;20214;-72
2022/09/04 05:55:30;;;;;;;2.40;1.23;;;;;;;15.29;66.66;102097.56;4972711;28;20219;-72
2022/09/04 05:58:21;;;;;;;1.67;1.17;;;;;;;15.44;65.63;102092.78;4972726;28;20196;-71
2022/09/04 06:01:22;;;;;;;1.63;1.53;;;;;;;15.57;64.21;102094.72;4975582;28;20211;-72
2022/09/04 06:03:56;;;;;;;2.07;1.30;;;;;;;15.72;63.75;102099.31;4970728;28;20188;-72
2022/09/04 06:06:35;;;;;;;2.23;1.20;;;;;;;15.80;63.24;102097.78;4970383;28;20192;-72
2022/09/04 06:09:10;;;;;;;2.97;1.40;;;;;;;15.94;63.21;102094.56;4971887;28;20204;-73
2022/09/04 06:12:03;;;;;;;1.93;1.30;;;;;;;16.07;62.45;102095.69;4977397;28;20223;-72
2022/09/04 06:14:55;;;;;;;1.40;0.97;;;;;;;16.15;61.59;102096.66;4970816;28;20616;-72
2022/09/04 06:17:43;;;;;;;3.13;1.30;;;;;;;16.35;60.81;102105.63;4969594;28;20227;-74
2022/09/04 06:20:18;;;;;;;1.73;1.03;;;;;;;16.43;60.56;102097.16;4971091;28;20297;-73
2022/09/04 06:23:00;;;;;;;4.43;1.50;;;;;;;16.64;59.85;102096.63;4969771;28;20184;-73
2022/09/04 06:26:00;;;;;;;3.23;1.20;;;;;;;16.74;59.71;102101.09;4952894;28;20208;-72
2022/09/04 06:28:43;;;;;;;1.67;1.33;;;;;;;16.92;59.32;102096.16;4969534;28;20193;-74
2022/09/04 06:31:11;;;;;;;1.77;1.30;;;;;;;17.00;58.56;102092.81;4972797;28;20266;-72
2022/09/04 06:33:51;;;;;;;3.30;1.57;;;;;;;17.14;58.10;102088.69;4971780;28;20196;-73
2022/09/04 06:36:25;;;;;;;4.67;1.20;;;;;;;17.27;57.68;102098.34;4971279;28;20192;-72
2022/09/04 06:39:21;;;;;;;2.37;1.40;;;;;;;17.39;57.65;102105.41;4973638;28;20276;-72
2022/09/04 06:42:22;;;;;;;2.03;1.40;;;;;;;17.56;57.58;102103.94;4971776;28;20208;-72
2022/09/04 06:45:00;;;;;;;1.23;1.13;;;;;;;17.62;56.48;102099.69;4943475;28;20347;-72
2022/09/04 06:47:28;;;;;;;2.30;1.20;;;;;;;17.80;55.87;102101.59;4971046;28;20197;-74
2022/09/04 06:50:00;;;;;;;2.10;1.20;;;;;;;17.94;56.04;102105.19;4970598;28;20196;-73
2022/09/04 06:52:32;;;;;;;3.17;1.40;;;;;;;18.04;55.25;102097.53;4971247;28;20651;-74
2022/09/04 06:55:07;;;;;;;2.77;1.50;;;;;;;18.21;54.94;102108.03;4971796;28;20206;-74
2022/09/04 06:57:49;;;;;;;2.97;1.43;;;;;;;18.36;54.17;102105.59;4976086;28;20282;-74
2022/09/04 07:00:16;;;;;;;4.27;1.40;;;;;;;18.40;53.71;102100.47;4970822;28;20332;-74
2022/09/04 07:03:08;;;;;;;4.10;1.40;;;;;;;18.40;54.22;102107.38;4971052;28;20195;-73
2022/09/04 07:05:37;;;;;;;4.17;1.50;;;;;;;18.66;53.16;102106.69;4968615;28;20670;-72
2022/09/04 07:08:43;;;;;;;3.07;1.40;;;;;;;18.74;53.07;102107.63;4971049;28;20192;-72
2022/09/04 07:11:23;;;;;;;1.80;1.57;;;;;;;18.93;52.17;102112.06;4971319;28;20694;-72
2022/09/04 07:14:18;;;;;;;2.80;1.70;;;;;;;19.08;51.57;102103.50;4972355;28;20619;-72
2022/09/04 07:17:13;;;;;;;2.20;1.60;;;;;;;19.24;51.17;102106.19;4969688;28;20203;-73
2022/09/04 07:20:06;;;;;;;2.63;1.63;;;;;;;19.41;50.57;102111.47;4942666;28;20259;-73
2022/09/04 07:22:44;;;;;;;3.33;1.77;;;;;;;19.66;50.91;102113.28;5031151;23;20233;-72
2022/09/04 07:25:22;;;;;;;2.10;1.70;;;;;;;19.87;50.17;102116.81;5009997;28;20217;-72
2022/09/04 07:27:56;;;;;;;1.70;1.60;;;;;;;19.96;50.80;102113.34;4992855;28;20186;-72
2022/09/04 07:30:24;;;;;;;3.90;1.70;;;;;;;20.00;50.23;102123.72;4992706;28;20208;-73
2022/09/04 07:33:01;;;;;;;3.93;2.17;;;;;;;19.86;50.32;102115.03;5006109;28;20653;-72
2022/09/04 07:36:17;;;;;;;3.43;1.60;;;;;;;20.14;50.34;102114.28;5007854;28;20217;-73
2022/09/04 07:38:55;;;;;;;3.40;2.10;;;;;;;20.23;49.53;102118.59;4998496;28;20226;-72
2022/09/04 07:41:53;;;;;;;3.60;1.90;;;;;;;20.45;49.34;102121.19;5005794;28;20806;-72
2022/09/04 07:44:28;;;;;;;4.27;1.93;;;;;;;20.83;48.88;102121.16;5004125;28;20663;-72
2022/09/04 07:47:11;;;;;;;2.27;1.83;;;;;;;20.68;48.93;102124.66;5002977;28;20187;-72
2022/09/04 07:49:48;;;;;;;2.73;1.90;;;;;;;20.63;48.70;102125.53;4999635;28;20202;-72
2022/09/04 07:52:55;;;;;;;4.47;2.10;;;;;;;20.92;48.84;102123.78;5009624;28;20213;-72
2022/09/04 07:55:50;;;;;;;4.17;2.20;;;;;;;21.07;47.79;102134.16;4977995;28;20226;-72
2022/09/04 07:58:21;;;;;;;3.30;2.17;;;;;;;20.91;48.52;102124.66;4996339;28;20200;-72
2022/09/04 08:00:49;;;;;;;2.50;2.00;;;;;;;21.15;48.13;102137.63;5007986;28;20214;-72
2022/09/04 08:03:36;;;;;;;3.27;1.73;;;;;;;21.38;47.40;102128.81;4973934;28;20380;-72
2022/09/04 08:06:30;;;;;;;3.40;1.90;;;;;;;21.54;47.37;102134.84;5002995;28;20325;-72
2022/09/04 08:09:20;;;;;;;3.43;2.27;;;;;;;21.56;47.11;102131.34;5001053;28;20206;-72
2022/09/04 08:11:57;;;;;;;2.07;1.90;;;;;;;21.58;47.38;102133.94;4997495;28;20624;-72
2022/09/04 08:14:26;;;;;;;5.53;2.40;;;;;;;21.81;47.13;102133.00;5001057;28;20199;-72
2022/09/04 08:16:55;;;;;;;4.13;2.07;;;;;;;21.48;47.15;102143.56;5005669;28;20196;-72
2022/09/04 08:19:30;;;;;;;2.93;2.07;;;;;;;21.94;46.79;102144.22;5008417;28;20242;-72
2022/09/04 08:21:56;;;;;;;3.43;2.30;;;;;;;21.92;46.33;102146.84;5006426;28;20309;-71
2022/09/04 08:24:38;;;;;;;3.00;1.97;;;;;;;22.20;45.91;102148.38;5003028;28;20255;-72
2022/09/04 08:27:40;;;;;;;3.27;2.17;;;;;;;22.17;45.92;102164.09;5008168;28;20572;-72
2022/09/04 08:30:13;;;;;;;3.13;2.30;;;;;;;22.35;45.94;102157.84;5003564;28;20209;-70
2022/09/04 08:33:15;;;;;;;5.40;2.50;;;;;;;22.73;45.65;102158.44;5005274;28;20222;-70
2022/09/04 08:36:01;;;;;;;3.13;2.20;;;;;;;22.87;45.07;102153.06;4978393;28;20707;-71
2022/09/04 08:38:54;;;;;;;4.97;2.40;;;;;;;22.94;44.82;102157.34;5018565;28;20566;-70
2022/09/04 08:41:34;;;;;;;3.27;2.27;;;;;;;22.96;45.13;102164.28;5003811;28;20207;-70
2022/09/04 08:44:42;;;;;;;2.77;2.17;;;;;;;23.33;44.28;102160.44;5003325;28;21112;-70
2022/09/04 08:47:38;;;;;;;3.00;2.20;;;;;;;23.21;44.38;102155.31;4999288;28;20188;-70
2022/09/04 08:50:15;;;;;;;3.53;2.10;;;;;;;23.36;44.15;102168.25;5024933;28;20187;-70
2022/09/04 08:52:49;;;;;;;3.77;2.30;;;;;;;23.48;44.15;102159.38;5007169;28;20296;-70
2022/09/04 08:55:32;;;;;;;2.63;2.37;;;;;;;23.55;43.96;102158.41;4991342;28;20692;-70
2022/09/04 08:58:13;;;;;;;3.87;2.30;;;;;;;23.98;43.69;102162.22;5007934;28;20191;-70
2022/09/04 09:00:57;;;;;;;4.13;2.40;;;;;;;24.29;42.66;102161.75;5003940;28;20587;-70
2022/09/04 09:04:01;;;;;;;3.03;2.20;;;;;;;24.50;42.75;102165.78;4994305;28;20263;-70
2022/09/04 09:06:48;;;;;;;4.13;2.23;;;;;;;23.79;42.56;102165.94;5005893;28;20183;-70
2022/09/04 09:09:31;;;;;;;3.20;2.40;;;;;;;24.26;42.82;102163.56;5005122;28;20867;-70
2022/09/04 09:12:34;;;;;;;4.97;2.47;;;;;;;24.97;42.04;102157.97;5008371;28;20215;-70
2022/09/04 09:15:19;;;;;;;3.30;2.65;;;;;;;25.07;40.64;102154.28;5007391;28;20206;-70
2022/09/04 09:18:29;;;;;;;3.90;2.15;;;;;;;24.57;41.56;102163.03;4999160;28;20202;-70
2022/09/04 09:21:29;;;;;;;3.10;2.35;;;;;;;25.05;40.43;102153.44;5010526;28;20214;-71
2022/09/04 09:24:25;;;;;;;3.30;2.33;;;;;;;25.13;40.18;102154.16;4999139;28;20206;-68
2022/09/04 09:27:10;;;;;;;2.45;2.25;;;;;;;25.82;38.53;102155.34;5016832;28;20192;-68
2022/09/04 09:29:55;;;;;;;2.42;2.22;;;;;;;27.77;36.06;102134.41;4976812;28;20318;-69
2022/09/04 09:32:27;;;;;;;3.65;2.50;;;;;;;30.89;31.31;102132.41;5001740;28;20220;-68
2022/09/04 09:35:30;;;;;;;4.40;2.58;;;;;;;34.38;26.57;102129.28;5001048;28;20206;-68
2022/09/04 09:38:07;;;;;;;2.97;2.30;;;;;;;34.81;25.23;102121.31;5001889;28;20205;-69
2022/09/04 09:40:42;;;;;;;5.32;2.90;;;;;;;34.57;25.16;102122.78;4999861;28;20183;-69
2022/09/04 09:43:30;;;;;;;2.60;2.35;;;;;;;35.90;24.42;102128.59;5008050;28;20221;-68
2022/09/04 09:45:59;;;;;;;2.85;2.53;;;;;;;36.55;23.22;102125.94;5002668;28;20558;-68
2022/09/04 09:48:33;;;;;;;2.90;2.28;;;;;;;36.49;23.42;102133.50;5006612;28;20222;-68
2022/09/04 09:51:17;;;;;;;3.22;2.40;;;;;;;36.43;23.27;102124.09;5005044;28;20228;-69
2022/09/04 09:54:07;;;;;;;2.80;2.60;;;;;;;36.42;23.58;102122.38;5007822;28;20187;-69
2022/09/04 09:57:07;;;;;;;2.70;2.30;;;;;;;34.36;25.98;102129.41;5006999;28;20191;-68
2022/09/04 09:59:39;;;;;;;3.42;2.40;;;;;;;33.18;27.35;102136.09;5004783;28;20183;-68
2022/09/04 10:02:24;;;;;;;2.63;2.42;;;;;;;31.38;29.57;102129.28;4998960;28;20204;-68
2022/09/04 10:04:59;;;;;;;3.22;2.20;;;;;;;29.88;31.38;102132.19;5009382;28;20214;-70
2022/09/04 10:07:50;;;;;;;4.90;2.60;;;;;;;29.50;32.38;102139.84;5009969;28;20194;-70
2022/09/04 10:10:37;;;;;;;2.75;2.28;;;;;;;29.57;32.22;102128.19;4972894;28;20214;-70
2022/09/04 10:13:08;;;;;;;4.55;2.15;;;;;;;29.50;33.17;102130.16;4999464;28;20196;-69
2022/09/04 10:15:57;;;;;;;3.00;2.38;;;;;;;29.01;32.75;102126.75;5004640;28;20223;-69
2022/09/04 10:18:44;;;;;;;3.22;2.47;;;;;;;28.31;33.36;102125.63;5005911;28;20191;-69
2022/09/04 10:21:28;;;;;;;4.72;2.22;;;;;;;29.03;33.27;102130.19;5004000;28;20207;-70
2022/09/04 10:24:25;;;;;;;3.35;2.50;;;;;;;28.65;33.06;102126.22;5006363;28;20230;-69
2022/09/04 10:27:09;;;;;;;2.53;2.28;;;;;;;28.77;33.81;102131.09;5003500;28;20197;-70
2022/09/04 10:29:59;;;;;;;3.03;2.17;;;;;;;28.23;34.45;102129.44;5002758;28;20237;-70
2022/09/04 10:32:24;;;;;;;2.97;2.50;;;;;;;28.56;34.12;102123.06;5002227;28;20210;-70
2022/09/04 10:35:28;;;;;;;2.72;2.30;;;;;;;28.88;33.74;102117.53;4998232;28;20223;-69
2022/09/04 10:41:34;;;;;;;3.15;2.38;;;;;;;28.52;33.93;102124.94;4982850;28;20265;-70
2022/09/04 10:44:50;;;;;;;3.22;2.45;;;;;;;28.25;34.54;102127.59;5003982;28;20207;-69
2022/09/04 10:47:37;;;;;;;3.10;2.65;;;;;;;28.79;34.33;102128.41;4974952;28;20208;-69
2022/09/04 10:50:49;;;;;;;3.47;2.53;;;;;;;28.77;33.65;102117.03;4984870;28;20196;-69
2022/09/04 10:53:50;;;;;;;3.17;2.60;;;;;;;29.03;33.41;102130.19;4998061;28;20541;-69
2022/09/04 10:56:21;;;;;;;5.28;2.50;;;;;;;29.23;33.04;102123.28;5005922;28;20205;-69
2022/09/04 10:59:08;;;;;;;3.00;2.30;;;;;;;28.98;32.90;102125.09;5005898;28;20321;-70
2022/09/04 11:01:46;;;;;;;3.88;2.47;;;;;;;28.69;33.72;102130.50;5004009;28;20559;-70
2022/09/04 11:04:14;;;;;;;2.88;2.50;;;;;;;29.20;33.29;102122.53;5005550;28;20236;-70
2022/09/04 11:06:58;;;;;;;2.72;2.50;;;;;;;29.22;32.85;102120.69;5003397;28;20195;-70
2022/09/04 11:09:37;;;;;;;3.00;2.70;;;;;;;29.22;32.42;102126.84;5017505;28;20219;-70
2022/09/04 11:12:21;;;;;;;3.05;2.72;;;;;;;29.42;32.70;102132.22;5000654;28;20212;-70
2022/09/04 11:15:02;;;;;;;4.40;2.50;;;;;;;29.50;32.21;102126.63;5006408;28;20210;-70
2022/09/04 11:17:48;;;;;;;3.35;2.35;;;;;;;29.84;32.01;102124.47;5002531;28;20198;-70
2022/09/04 11:20:38;;;;;;;3.42;2.42;;;;;;;29.91;32.37;102113.59;4996533;28;20227;-70
2022/09/04 11:23:17;;;;;;;3.03;2.20;;;;;;;29.83;32.81;102123.59;5008752;28;20292;-70
2022/09/04 11:26:04;;;;;;;2.70;2.50;;;;;;;29.20;32.74;102122.53;5005397;28;20711;-70
2022/09/04 11:29:09;;;;;;;2.53;2.13;;;;;;;29.70;31.64;102111.78;5005585;28;20186;-70
2022/09/04 11:31:51;;;;;;;3.00;1.95;;;;;;;29.04;32.48;102111.66;5000662;28;20640;-71
2022/09/04 11:34:45;;;;;;;2.97;2.33;;;;;;;29.66;31.64;102115.47;4998126;28;20656;-70
2022/09/04 11:37:32;;;;;;;4.63;2.45;;;;;;;28.77;32.52;102117.91;5008158;28;20199;-70
2022/09/04 11:40:25;;;;;;;3.50;2.45;;;;;;;30.27;31.75;102116.53;5002604;28;20560;-70
2022/09/04 11:43:19;;;;;;;2.92;2.20;;;;;;;30.12;31.71;102114.53;5006622;28;20237;-70
2022/09/04 11:46:06;;;;;;;3.15;2.40;;;;;;;29.96;30.77;102114.25;5005377;28;20234;-70
2022/09/04 11:49:09;;;;;;;3.50;2.40;;;;;;;30.16;30.38;102102.03;5008511;28;20216;-70
2022/09/04 11:52:02;;;;;;;3.72;2.33;;;;;;;30.03;31.23;102105.13;5003838;28;20688;-71
2022/09/04 11:54:56;;;;;;;3.75;2.28;;;;;;;30.68;30.83;102110.38;5002779;28;20700;-71
2022/09/04 11:57:47;;;;;;;2.65;2.40;;;;;;;30.87;31.12;102099.81;5002037;28;20191;-71
2022/09/04 12:00:15;;;;;;;2.55;2.35;;;;;;;30.23;30.00;102095.56;5003505;28;20188;-71
2022/09/04 12:02:59;;;;;;;2.50;2.17;;;;;;;30.94;29.60;102099.47;5004717;28;20214;-70
2022/09/04 12:05:46;;;;;;;2.50;2.20;;;;;;;30.64;29.67;102102.59;5003698;28;20272;-70
2022/09/04 12:08:42;;;;;;;3.67;2.22;;;;;;;31.15;30.44;102089.72;5003123;28;20230;-68
2022/09/04 12:11:33;;;;;;;2.65;2.00;;;;;;;31.34;29.80;102086.19;5013644;28;20207;-71
2022/09/04 12:14:27;;;;;;;4.22;2.60;;;;;;;31.04;30.07;102089.34;5005667;28;20337;-70
2022/09/04 12:17:14;;;;;;;2.88;2.10;;;;;;;31.05;28.82;102086.63;5002708;28;20666;-70
2022/09/04 12:20:05;;;;;;;2.33;2.13;;;;;;;30.48;30.84;102094.44;5005713;28;20240;-70
2022/09/04 12:23:02;;;;;;;2.92;2.63;;;;;;;30.61;29.98;102086.88;5007955;28;20909;-70
2022/09/04 12:25:47;;;;;;;4.00;2.30;;;;;;;30.98;29.91;102105.53;5007297;28;20179;-71
2022/09/04 12:28:32;;;;;;;2.92;2.03;;;;;;;30.96;29.34;102096.78;5007742;28;20729;-71
2022/09/04 12:31:25;;;;;;;5.05;2.20;;;;;;;30.54;29.68;102103.91;5023580;28;20233;-71
2022/09/04 12:33:50;;;;;;;2.28;2.08;;;;;;;31.06;29.88;102095.41;5003967;28;20203;-70
2022/09/04 12:36:33;;;;;;;2.80;2.08;;;;;;;30.71;30.43;102090.84;5007706;28;20200;-71
2022/09/04 12:39:17;;;;;;;2.40;2.20;;;;;;;30.55;30.53;102095.91;5005107;28;20256;-71
2022/09/04 12:41:45;;;;;;;3.05;2.30;;;;;;;30.96;29.86;102091.47;5009000;28;20226;-70
2022/09/04 12:44:29;;;;;;;3.42;2.45;;;;;;;30.59;29.43;102092.22;5008293;28;20194;-70
2022/09/04 12:47:12;;;;;;;5.60;2.25;;;;;;;30.80;29.28;102093.09;5000236;28;20262;-70